Aviation Digital Data Service (ADDS)

Output produced by TAFs form (1051 UTC 16 July 2018)
found at http://www.aviationweather.gov/adds/tafs/
 
METAR text: OERK 161000Z 30012KT CAVOK 43/M01 Q1003 NOSIG
Conditions at: OERK (RIYADH/KING KHAL, SA) observed 1000 UTC 16 July 2018
Temperature: 43.0°C (109°F)
Dewpoint: -1.0°C (30°F) [RH = 7%]
Pressure (altimeter): 29.62 inches Hg (1003.0 mb)
Winds: from the WNW (300 degrees) at 14 MPH (12 knots; 6.2 m/s)
Visibility: 6 or more miles (10+ km)
Ceiling: ceiling and visibility are OK
Clouds: unknown
Weather: no significant weather observed at this time

Forecast for: OERK (RIYADH/KING KHAL, SA)
Text: TAF OERK 160500Z 1606/1712 31010KT 7000 FEW040 SCT100
Forecast period: 0600 UTC 16 July 2018 to 1200 UTC 17 July 2018
Forecast type: FROM: standard forecast or significant change
Winds: from the NW (310 degrees) at 12 MPH (10 knots; 5.2 m/s)
Visibility: 4 miles (7 km)
Clouds: few clouds at 4000 feet AGL
scattered clouds at 10000 feet AGL
Weather: no significant weather forecast for this period
Text: TEMPO 1606/1612 5000 DU
Forecast period: 0600 to 1200 UTC 16 July 2018
Forecast type: TEMPORARY: The following changes expected for less than half the time period
Visibility: 3 miles (5 km)
Weather: DU  (widespread dust)